CheckWX is a tool to help pilots better visualize weather data.  It is not intended as a substitute for an official pre-flight weather briefing.

04:54:30 UTC

UCFO METAR
Osh
Osh
Current

25 mins ago

UCFO 270430Z 03002MPS 350V100 9000 NSC 31/10 Q1013 R12/0///95 NOSIG
Observed
May-27 @ 04:30 UTC
Wind
  • 030° at 4 KTS
Visibility
8996 meters
Flight Rules
VFR
Cloud Levels
  • Clear skies
Temperature
31°C / 88°F
Dewpoint
10°C / 50°F
Humidity
27%
Altimeter
29.91" Hg
Pressure
1012.92 hPa
Previous

55 mins ago

UCFO 270400Z 04002MPS 320V120 9000 NSC 32/09 Q1013 R12/0///95 NOSIG
Observed
May-27 @ 04:00 UTC
Wind
  • 040° at 4 KTS
Visibility
8996 meters
Flight Rules
VFR
Cloud Levels
  • Clear skies
Temperature
32°C / 90°F
Dewpoint
C / 48°F
Humidity
24%
Altimeter
29.91" Hg
Pressure
1012.92 hPa
Previous

1 hour ago

UCFO 270330Z 17003MPS 8000 NSC 31/10 Q1013 R12/0///95 NOSIG
Observed
May-27 @ 03:30 UTC
Wind
  • 170° at 6 KTS
Visibility
7998 meters
Flight Rules
MVFR
Cloud Levels
  • Clear skies
Temperature
31°C / 88°F
Dewpoint
10°C / 50°F
Humidity
27%
Altimeter
29.91" Hg
Pressure
1012.92 hPa